Time;durP1;ratioP1;P1;durP2;ratioP2;P2;SDS_P1;SDS_P2;PMS_P1;PMS_P2;Temp;Humidity;BMP_temperature;BMP_pressure;BME280_temperature;BME280_humidity;BME280_pressure;Samples;Min_cycle;Max_cycle;Signal;HPM_P1;HPM_P2
2024/01/21 00:01:12;;;;;;;10.23;3.63;;;;;;;-0.60;73.76;94885.41;5102966;28;20051;-77
2024/01/21 00:03:38;;;;;;;7.93;3.55;;;;;;;-0.58;73.82;94887.81;5102881;28;20245;-76
2024/01/21 00:06:03;;;;;;;7.00;3.58;;;;;;;-0.57;73.05;94886.78;5102948;28;20020;-77
2024/01/21 00:08:29;;;;;;;5.93;3.13;;;;;;;-0.57;72.83;94890.22;5103101;28;20070;-77
2024/01/21 00:10:54;;;;;;;7.30;3.10;;;;;;;-0.56;72.80;94891.03;5101803;28;20428;-77
2024/01/21 00:13:20;;;;;;;9.32;3.33;;;;;;;-0.62;72.71;94887.44;5103133;28;20016;-76
2024/01/21 00:15:45;;;;;;;9.63;2.88;;;;;;;-0.59;72.95;94892.25;5102811;28;20395;-76
2024/01/21 00:18:11;;;;;;;6.75;2.72;;;;;;;-0.54;72.78;94894.22;5102986;28;20031;-77
2024/01/21 00:20:36;;;;;;;6.85;2.58;;;;;;;-0.54;72.31;94899.47;5102868;28;20330;-76
2024/01/21 00:23:01;;;;;;;6.47;3.25;;;;;;;-0.54;72.50;94899.47;5101708;28;20024;-76
2024/01/21 00:25:27;;;;;;;5.85;2.38;;;;;;;-0.53;72.31;94895.81;5103076;28;20214;-77
2024/01/21 00:27:52;;;;;;;5.55;2.58;;;;;;;-0.55;72.79;94913.56;5102894;28;20026;-76
2024/01/21 00:30:18;;;;;;;6.93;2.95;;;;;;;-0.57;72.74;94894.66;5102857;28;20093;-76
2024/01/21 00:32:43;;;;;;;5.90;2.58;;;;;;;-0.56;72.91;94902.28;5102769;28;20032;-76
2024/01/21 00:35:09;;;;;;;7.35;2.97;;;;;;;-0.52;73.25;94902.66;5102648;28;20039;-76
2024/01/21 00:37:34;;;;;;;5.90;2.63;;;;;;;-0.54;73.54;94909.94;5102828;28;20027;-77
2024/01/21 00:40:00;;;;;;;8.38;4.25;;;;;;;-0.51;72.83;94899.84;5101586;28;20315;-76
2024/01/21 00:42:25;;;;;;;6.72;3.35;;;;;;;-0.49;72.80;94902.22;5102674;28;20024;-76
2024/01/21 00:44:51;;;;;;;9.05;2.95;;;;;;;-0.45;73.00;94906.00;5102725;28;20061;-77
2024/01/21 00:47:16;;;;;;;7.07;2.67;;;;;;;-0.47;72.79;94905.41;5102706;28;20112;-76
2024/01/21 00:49:41;;;;;;;4.80;2.40;;;;;;;-0.49;72.43;94907.44;5102533;28;20426;-76
2024/01/21 00:52:08;;;;;;;5.45;2.90;;;;;;;-0.48;72.10;94909.84;5102717;28;20012;-76
2024/01/21 00:54:33;;;;;;;4.72;2.60;;;;;;;-0.49;72.88;94912.69;5102529;28;20024;-76
2024/01/21 00:56:59;;;;;;;7.68;3.28;;;;;;;-0.47;73.16;94908.03;5102600;28;20030;-76
2024/01/21 00:59:24;;;;;;;8.07;2.38;;;;;;;-0.54;73.24;94912.56;5102422;28;20365;-76
2024/01/21 01:01:50;;;;;;;7.60;2.88;;;;;;;-0.55;73.05;94910.94;5104669;28;20078;-76
2024/01/21 01:04:15;;;;;;;5.25;2.38;;;;;;;-0.57;73.22;94910.34;5106231;28;20087;-76
2024/01/21 01:06:40;;;;;;;7.30;2.80;;;;;;;-0.62;72.63;94911.00;5106472;28;20023;-76
2024/01/21 01:09:06;;;;;;;5.78;2.38;;;;;;;-0.63;72.50;94912.84;5106229;28;20020;-76
2024/01/21 01:11:32;;;;;;;3.97;1.90;;;;;;;-0.66;72.52;94915.88;5106297;28;20024;-76
2024/01/21 01:13:57;;;;;;;6.43;2.05;;;;;;;-0.67;72.37;94914.28;5105941;28;20027;-76
2024/01/21 01:16:22;;;;;;;5.32;1.77;;;;;;;-0.67;72.47;94910.84;5106075;28;20020;-77
2024/01/21 01:18:49;;;;;;;3.70;2.00;;;;;;;-0.68;72.44;94912.69;5106135;28;20028;-78
2024/01/21 01:21:14;;;;;;;5.75;2.35;;;;;;;-0.70;72.23;94912.09;5106252;28;20028;-78
2024/01/21 01:23:40;;;;;;;4.70;2.20;;;;;;;-0.71;71.91;94915.75;5106071;28;20054;-78
2024/01/21 01:26:08;;;;;;;5.05;2.15;;;;;;;-0.71;71.85;94915.75;5106018;28;20031;-78
2024/01/21 01:28:34;;;;;;;3.83;2.20;;;;;;;-0.74;71.75;94921.41;5105789;28;20027;-78
2024/01/21 01:30:59;;;;;;;6.15;2.42;;;;;;;-0.77;72.25;94913.16;5106198;28;20016;-78
2024/01/21 01:33:25;;;;;;;3.20;2.00;;;;;;;-0.79;72.13;94917.81;5105637;28;20180;-78
2024/01/21 01:35:50;;;;;;;5.07;2.47;;;;;;;-0.80;72.41;94914.41;5104840;28;20026;-78
2024/01/21 01:38:16;;;;;;;4.90;2.08;;;;;;;-0.79;72.53;94915.19;5105706;28;20052;-78
2024/01/21 01:40:41;;;;;;;3.40;1.83;;;;;;;-0.82;72.39;94913.81;5105799;28;20133;-78
2024/01/21 01:43:07;;;;;;;3.50;1.95;;;;;;;-0.84;72.63;94918.47;5105630;28;20318;-78
2024/01/21 01:45:32;;;;;;;6.60;2.25;;;;;;;-0.84;72.26;94915.84;5105667;28;20036;-77
2024/01/21 01:47:58;;;;;;;3.17;1.80;;;;;;;-0.89;72.44;94913.88;5105720;28;20188;-78
2024/01/21 01:50:25;;;;;;;4.38;2.10;;;;;;;-0.95;72.53;94919.19;5105487;28;20345;-78
2024/01/21 01:52:51;;;;;;;3.95;1.80;;;;;;;-0.95;72.75;94920.00;5105733;28;20211;-78
2024/01/21 01:55:17;;;;;;;3.88;2.08;;;;;;;-0.97;73.26;94924.63;5105448;28;20025;-78
2024/01/21 01:57:45;;;;;;;2.55;1.40;;;;;;;-0.97;73.09;94916.00;5105457;28;20072;-78
2024/01/21 02:00:12;;;;;;;6.75;1.70;;;;;;;-0.96;73.13;94917.56;5105306;28;20073;-78
2024/01/21 02:02:40;;;;;;;6.47;1.75;;;;;;;-0.95;73.40;94913.97;5103922;28;20047;-76
2024/01/21 02:05:06;;;;;;;9.43;2.22;;;;;;;-0.98;73.61;94922.22;5105108;28;20036;-77
2024/01/21 02:07:31;;;;;;;4.20;2.05;;;;;;;-0.98;73.94;94917.78;5105097;28;20087;-77
2024/01/21 02:09:57;;;;;;;3.95;1.80;;;;;;;-1.01;73.78;94916.41;5105254;28;20028;-77
2024/01/21 02:12:22;;;;;;;4.57;1.30;;;;;;;-1.02;73.94;94914.00;5104719;28;20048;-77
2024/01/21 02:14:48;;;;;;;4.22;2.05;;;;;;;-1.06;73.55;94918.06;5105119;28;20032;-77
2024/01/21 02:17:13;;;;;;;5.97;1.92;;;;;;;-1.06;73.60;94918.06;5105046;28;20313;-77
2024/01/21 02:19:39;;;;;;;3.15;1.88;;;;;;;-1.08;73.40;94925.31;5104890;28;20228;-76
2024/01/21 02:22:04;;;;;;;3.60;1.48;;;;;;;-1.11;73.66;94923.16;5104716;28;20223;-77
2024/01/21 02:24:33;;;;;;;4.70;2.03;;;;;;;-1.11;73.41;94925.75;5103679;28;20204;-77
2024/01/21 02:26:59;;;;;;;4.55;1.77;;;;;;;-1.15;73.49;94925.38;5104716;28;20093;-77
2024/01/21 02:29:25;;;;;;;3.63;1.67;;;;;;;-1.19;73.92;94924.19;5104828;28;20038;-77
2024/01/21 02:31:56;;;;;;;3.97;1.63;;;;;;;-1.20;74.02;94927.84;5104916;28;20123;-77
2024/01/21 02:34:21;;;;;;;4.55;2.00;;;;;;;-1.24;73.89;94935.31;5104839;28;20052;-77
2024/01/21 02:36:47;;;;;;;5.80;2.35;;;;;;;-1.27;73.59;94940.16;5104562;28;20039;-77
2024/01/21 02:39:13;;;;;;;5.00;2.05;;;;;;;-1.33;73.29;94941.00;5104518;28;20039;-78
2024/01/21 02:41:38;;;;;;;4.30;1.95;;;;;;;-1.36;73.65;94944.03;5104440;28;20225;-77
2024/01/21 02:44:04;;;;;;;6.05;2.45;;;;;;;-1.43;73.52;94937.03;5104406;28;20226;-76
2024/01/21 02:46:29;;;;;;;5.80;2.55;;;;;;;-1.44;73.71;94940.69;5104233;28;20094;-77
2024/01/21 02:48:54;;;;;;;9.32;3.70;;;;;;;-1.41;73.49;94949.91;5104214;28;20024;-77
2024/01/21 02:51:20;;;;;;;8.25;3.60;;;;;;;-1.48;73.63;94947.34;5104419;28;20031;-77
2024/01/21 02:53:45;;;;;;;11.68;5.05;;;;;;;-1.47;73.74;94948.13;5104191;28;20027;-77
2024/01/21 02:56:24;;;;;;;7.45;3.30;;;;;;;-1.48;74.14;94942.13;5104042;28;20031;-77
2024/01/21 02:58:51;;;;;;;11.68;5.13;;;;;;;-1.53;74.06;94951.59;5104433;28;20191;-77
2024/01/21 03:01:17;;;;;;;7.35;3.30;;;;;;;-1.57;74.11;94947.81;5104043;28;20291;-77
2024/01/21 03:03:42;;;;;;;6.78;3.33;;;;;;;-1.58;74.32;94948.81;5103982;28;20039;-77
2024/01/21 03:06:08;;;;;;;5.13;2.95;;;;;;;-1.67;74.48;94959.53;5103917;28;20020;-77
2024/01/21 03:08:33;;;;;;;9.05;3.50;;;;;;;-1.71;74.26;94958.34;5103877;28;20050;-77
2024/01/21 03:10:58;;;;;;;3.22;2.00;;;;;;;-1.94;74.24;94958.03;5104040;28;20074;-77
2024/01/21 03:13:24;;;;;;;6.50;2.38;;;;;;;-2.00;74.68;94964.09;5103951;28;20028;-77
2024/01/21 03:15:49;;;;;;;6.18;2.65;;;;;;;-1.99;74.52;94966.50;5104055;28;20012;-77
2024/01/21 03:18:15;;;;;;;7.43;3.22;;;;;;;-2.07;74.13;94966.75;5103808;28;20333;-77
2024/01/21 03:20:40;;;;;;;6.20;2.80;;;;;;;-2.12;74.42;94966.56;5103712;28;20012;-76
2024/01/21 03:23:05;;;;;;;5.28;2.47;;;;;;;-2.13;74.16;94965.75;5102994;28;20215;-75
2024/01/21 03:25:31;;;;;;;8.05;2.85;;;;;;;-2.13;74.12;94972.78;5103380;28;20019;-76
2024/01/21 03:27:56;;;;;;;7.78;2.60;;;;;;;-2.14;74.15;94968.56;5103576;28;20023;-76
2024/01/21 03:30:22;;;;;;;8.38;2.72;;;;;;;-2.20;74.62;94975.41;5103770;28;20324;-77
2024/01/21 03:32:47;;;;;;;7.07;2.22;;;;;;;-2.20;74.76;94978.03;5102447;28;20046;-77
2024/01/21 03:35:12;;;;;;;5.25;2.35;;;;;;;-2.22;74.46;94980.88;5103623;28;20047;-77
2024/01/21 03:37:38;;;;;;;5.93;2.63;;;;;;;-2.27;74.31;94979.88;5103459;28;20027;-77
2024/01/21 03:40:05;;;;;;;8.10;3.00;;;;;;;-2.34;74.32;94979.06;5103478;28;20371;-77
2024/01/21 03:42:31;;;;;;;5.43;2.50;;;;;;;-2.43;74.56;94976.69;5103439;28;20016;-77
2024/01/21 03:44:56;;;;;;;6.68;2.63;;;;;;;-2.46;74.64;94984.13;5103534;28;20093;-76
2024/01/21 03:47:21;;;;;;;6.30;2.67;;;;;;;-2.50;74.59;94981.13;5103489;28;20019;-76
2024/01/21 03:49:47;;;;;;;4.72;2.30;;;;;;;-2.50;74.29;94988.97;5103291;28;20241;-76
2024/01/21 03:52:12;;;;;;;6.95;3.20;;;;;;;-2.55;74.05;94980.13;5102179;28;20024;-76
2024/01/21 03:54:38;;;;;;;7.72;2.85;;;;;;;-2.66;74.44;94984.97;5103214;28;20217;-77
2024/01/21 03:57:03;;;;;;;5.88;2.67;;;;;;;-2.73;74.05;94984.16;5103119;28;20016;-77
2024/01/21 03:59:28;;;;;;;8.43;2.95;;;;;;;-2.79;74.40;94984.97;5103325;28;20023;-77
2024/01/21 04:01:54;;;;;;;6.88;3.08;;;;;;;-2.87;74.39;94991.22;5102934;28;20031;-76
2024/01/21 04:04:19;;;;;;;6.28;3.17;;;;;;;-2.97;74.69;94992.59;5103176;28;20318;-75
2024/01/21 04:06:45;;;;;;;7.07;2.95;;;;;;;-3.09;74.79;94995.81;5102988;28;20026;-76
2024/01/21 04:09:12;;;;;;;14.45;4.80;;;;;;;-3.29;75.21;95010.66;5102958;28;20233;-76
2024/01/21 04:11:40;;;;;;;9.48;3.20;;;;;;;-3.49;76.52;95016.59;5102854;28;20032;-76
2024/01/21 04:14:06;;;;;;;6.63;3.00;;;;;;;-3.76;77.26;95017.56;5102913;28;20029;-76
2024/01/21 04:16:31;;;;;;;11.43;3.15;;;;;;;-4.00;77.84;95021.47;5103041;28;20079;-76
2024/01/21 04:18:57;;;;;;;7.47;3.22;;;;;;;-4.10;79.03;95014.00;5102896;28;20113;-76
2024/01/21 04:21:22;;;;;;;7.35;2.85;;;;;;;-4.30;79.53;95021.69;5102952;28;20023;-77
2024/01/21 04:23:48;;;;;;;6.88;3.40;;;;;;;-4.37;79.94;95024.28;5102744;28;20027;-77
2024/01/21 04:26:13;;;;;;;7.72;2.53;;;;;;;-4.46;80.29;95028.84;5102799;28;20039;-77
2024/01/21 04:28:38;;;;;;;6.63;2.63;;;;;;;-4.50;80.37;95024.19;5102822;28;20069;-77
2024/01/21 04:31:04;;;;;;;5.43;2.03;;;;;;;-4.50;80.90;95022.41;5102831;28;20024;-76
2024/01/21 04:33:29;;;;;;;3.97;1.85;;;;;;;-4.45;81.21;95032.22;5101559;28;20091;-76
2024/01/21 04:35:55;;;;;;;3.92;1.70;;;;;;;-4.39;81.04;95028.88;5105547;28;20058;-76
2024/01/21 04:38:23;;;;;;;4.05;1.77;;;;;;;-4.33;80.43;95022.91;5107025;28;20031;-77
2024/01/21 04:40:49;;;;;;;7.22;1.73;;;;;;;-4.35;80.34;95040.50;5106764;28;20023;-77
2024/01/21 04:43:15;;;;;;;4.55;2.03;;;;;;;-4.41;80.40;95041.28;5106719;28;20028;-78
2024/01/21 04:45:40;;;;;;;5.25;2.20;;;;;;;-4.40;80.26;95047.28;5106773;28;20087;-78
2024/01/21 04:48:06;;;;;;;4.57;1.67;;;;;;;-4.49;79.70;95044.03;5106867;28;20314;-78
2024/01/21 04:50:31;;;;;;;2.72;1.58;;;;;;;-4.50;80.28;95047.59;5105266;28;20274;-78
2024/01/21 04:52:57;;;;;;;5.90;1.55;;;;;;;-4.52;80.17;95041.78;5106420;28;20043;-77
2024/01/21 04:55:22;;;;;;;3.75;1.73;;;;;;;-4.52;80.02;95049.59;5106578;28;20048;-78
2024/01/21 04:57:48;;;;;;;2.63;1.30;;;;;;;-4.49;80.66;95041.41;5106932;28;20186;-78
2024/01/21 05:00:13;;;;;;;2.17;1.45;;;;;;;-4.49;80.22;95044.81;5106218;28;20260;-76
2024/01/21 05:02:39;;;;;;;3.22;1.83;;;;;;;-4.51;80.71;95046.81;5106238;28;20044;-76
2024/01/21 05:05:05;;;;;;;5.90;1.92;;;;;;;-4.45;79.95;95051.25;5106402;28;20024;-77
2024/01/21 05:07:30;;;;;;;4.45;1.70;;;;;;;-4.51;79.69;95059.03;5106228;28;20027;-77
2024/01/21 05:09:56;;;;;;;4.72;2.10;;;;;;;-4.60;79.93;95049.72;5106234;28;20020;-77
2024/01/21 05:12:22;;;;;;;5.57;2.30;;;;;;;-4.61;79.87;95059.34;5106671;28;20008;-77
2024/01/21 05:14:47;;;;;;;5.35;2.45;;;;;;;-4.65;80.17;95064.13;5106388;28;20183;-77
2024/01/21 05:17:12;;;;;;;4.88;2.10;;;;;;;-4.61;80.21;95064.53;5106153;28;20024;-76
2024/01/21 05:19:38;;;;;;;5.90;2.28;;;;;;;-4.61;79.66;95071.56;5106092;28;20016;-76
2024/01/21 05:22:04;;;;;;;5.00;2.25;;;;;;;-4.69;79.26;95068.09;5106033;28;20127;-76
2024/01/21 05:24:29;;;;;;;5.80;2.50;;;;;;;-4.70;78.73;95071.69;5106083;28;20016;-75
2024/01/21 05:26:55;;;;;;;8.63;2.33;;;;;;;-4.77;78.82;95088.22;5105882;28;20302;-77
2024/01/21 05:29:20;;;;;;;8.07;2.78;;;;;;;-4.96;79.28;95087.09;5106116;28;20269;-77
2024/01/21 05:31:46;;;;;;;9.23;2.60;;;;;;;-5.11;79.78;95082.75;5105860;28;20016;-76
2024/01/21 05:34:13;;;;;;;4.93;2.00;;;;;;;-5.19;80.25;95092.44;5105926;28;20058;-76
2024/01/21 05:36:38;;;;;;;3.83;1.60;;;;;;;-5.29;80.44;95100.53;5105797;28;20020;-76
2024/01/21 05:39:04;;;;;;;5.35;2.03;;;;;;;-5.42;80.96;95092.59;5105628;28;20012;-76
2024/01/21 05:41:29;;;;;;;4.00;2.00;;;;;;;-5.41;81.10;95099.41;5105602;28;20245;-76
2024/01/21 05:43:55;;;;;;;4.15;1.55;;;;;;;-5.50;81.21;95104.72;5105742;28;20023;-77
2024/01/21 05:46:21;;;;;;;5.10;2.13;;;;;;;-5.52;81.75;95108.47;5105085;28;20318;-76
2024/01/21 05:48:46;;;;;;;6.65;1.70;;;;;;;-5.51;81.92;95103.13;5105605;28;20477;-76
2024/01/21 05:51:11;;;;;;;5.75;2.33;;;;;;;-5.56;81.99;95102.84;5105510;28;20016;-77
2024/01/21 05:53:39;;;;;;;5.00;2.17;;;;;;;-5.62;82.20;95103.56;5105222;28;20078;-77
2024/01/21 05:56:05;;;;;;;4.07;2.03;;;;;;;-5.58;82.29;95106.63;5105552;28;20036;-76
2024/01/21 05:58:30;;;;;;;4.85;2.00;;;;;;;-5.59;82.24;95116.22;5105458;28;20031;-76
2024/01/21 06:00:56;;;;;;;6.05;2.15;;;;;;;-5.57;82.45;95122.03;5105412;28;20265;-77
2024/01/21 06:03:21;;;;;;;4.68;2.35;;;;;;;-5.53;82.52;95115.47;5105335;28;20379;-76
2024/01/21 06:05:46;;;;;;;3.90;1.90;;;;;;;-5.50;82.17;95117.69;5105219;28;20083;-76
2024/01/21 06:08:12;;;;;;;5.35;2.45;;;;;;;-5.46;81.67;95113.75;5105247;28;20062;-77
2024/01/21 06:10:37;;;;;;;6.20;2.42;;;;;;;-5.48;81.53;95130.50;5105243;28;20215;-77
2024/01/21 06:13:03;;;;;;;4.57;2.08;;;;;;;-5.48;81.67;95125.31;5105040;28;20016;-77
2024/01/21 06:15:28;;;;;;;4.72;2.20;;;;;;;-5.48;82.12;95125.31;5105079;28;20027;-76
2024/01/21 06:17:54;;;;;;;7.93;2.65;;;;;;;-5.44;81.61;95129.16;5105260;28;20252;-77
2024/01/21 06:20:19;;;;;;;5.28;2.38;;;;;;;-5.40;81.56;95134.81;5105315;28;20020;-77
2024/01/21 06:22:45;;;;;;;6.20;3.15;;;;;;;-5.41;81.48;95134.00;5104762;28;20024;-77
2024/01/21 06:25:11;;;;;;;5.18;2.67;;;;;;;-5.36;81.51;95128.25;5105032;28;20240;-77
2024/01/21 06:27:37;;;;;;;6.53;2.80;;;;;;;-5.33;81.57;95130.47;5104945;28;20065;-77
2024/01/21 06:30:16;;;;;;;6.70;2.85;;;;;;;-5.29;81.31;95136.91;5104520;28;20266;-77
2024/01/21 06:32:42;;;;;;;5.07;2.10;;;;;;;-5.26;81.34;95131.38;5104712;28;20016;-77
2024/01/21 06:35:08;;;;;;;6.85;3.25;;;;;;;-5.21;81.41;95134.25;5104749;28;20382;-77
2024/01/21 06:37:33;;;;;;;6.03;2.38;;;;;;;-5.24;81.50;95124.19;5104684;28;20020;-76
2024/01/21 06:39:58;;;;;;;3.63;2.25;;;;;;;-5.19;81.26;95127.06;5104613;28;20031;-77
2024/01/21 06:42:24;;;;;;;6.95;2.47;;;;;;;-5.14;80.92;95135.09;5104521;28;20087;-77
2024/01/21 06:44:50;;;;;;;5.70;2.88;;;;;;;-5.07;81.13;95133.38;5104709;28;20087;-78
2024/01/21 06:47:15;;;;;;;5.75;2.30;;;;;;;-4.98;81.06;95143.66;5104768;28;20019;-78
2024/01/21 06:49:40;;;;;;;4.85;2.45;;;;;;;-4.93;80.46;95146.50;5104424;28;20027;-78
2024/01/21 06:52:07;;;;;;;6.05;2.63;;;;;;;-4.89;80.48;95152.94;5104396;28;20024;-78
2024/01/21 06:54:36;;;;;;;6.70;2.75;;;;;;;-4.76;79.98;95150.47;5104366;28;20195;-78
2024/01/21 06:57:04;;;;;;;5.43;2.40;;;;;;;-4.70;79.72;95156.72;5104327;28;20020;-77
2024/01/21 06:59:30;;;;;;;4.28;2.25;;;;;;;-4.72;79.35;95154.31;5104271;28;20061;-76
2024/01/21 07:01:55;;;;;;;4.28;1.85;;;;;;;-4.62;78.90;95161.78;5104018;28;20035;-77
2024/01/21 07:04:20;;;;;;;9.63;2.33;;;;;;;-4.53;78.92;95160.69;5103136;28;20367;-77
2024/01/21 07:06:46;;;;;;;8.35;2.88;;;;;;;-4.51;78.48;95158.69;5103916;28;20095;-77
2024/01/21 07:09:12;;;;;;;10.00;3.17;;;;;;;-4.46;78.67;95158.13;5104144;28;20020;-78
2024/01/21 07:11:41;;;;;;;7.57;2.75;;;;;;;-4.41;78.21;95155.78;5103952;28;20083;-77
2024/01/21 07:14:07;;;;;;;10.27;3.90;;;;;;;-4.29;77.82;95164.69;5104040;28;20043;-77
2024/01/21 07:16:32;;;;;;;9.45;3.75;;;;;;;-4.24;77.47;95172.72;5104071;28;20020;-77
2024/01/21 07:18:57;;;;;;;9.90;4.00;;;;;;;-4.13;77.03;95175.81;5103703;28;20341;-78
2024/01/21 07:21:23;;;;;;;8.00;3.63;;;;;;;-4.21;77.12;95171.56;5103872;28;20306;-79
2024/01/21 07:23:48;;;;;;;10.60;3.50;;;;;;;-4.09;76.93;95177.03;5104209;28;20097;-78
2024/01/21 07:26:14;;;;;;;13.70;3.85;;;;;;;-3.98;76.75;95176.53;5103844;28;20023;-77
2024/01/21 07:28:39;;;;;;;6.93;2.95;;;;;;;-3.98;76.54;95179.13;5103455;28;20337;-76
2024/01/21 07:31:05;;;;;;;9.00;3.85;;;;;;;-3.91;76.25;95177.41;5103320;28;20095;-76
2024/01/21 07:33:31;;;;;;;6.55;3.15;;;;;;;-3.81;75.83;95182.25;5101786;28;20100;-77
2024/01/21 07:35:58;;;;;;;8.95;3.35;;;;;;;-3.65;75.23;95192.38;5103259;28;20020;-77
2024/01/21 07:38:23;;;;;;;5.75;2.80;;;;;;;-3.73;74.46;95176.88;5102753;28;20024;-76
2024/01/21 07:40:48;;;;;;;5.30;2.75;;;;;;;-3.67;74.32;95185.75;5103259;28;20051;-76
2024/01/21 07:43:14;;;;;;;11.73;4.38;;;;;;;-3.61;73.48;95192.78;5103253;28;20020;-77
2024/01/21 07:45:40;;;;;;;11.43;4.15;;;;;;;-3.62;73.38;95188.59;5102957;28;20024;-76
2024/01/21 07:48:05;;;;;;;26.33;7.18;;;;;;;-3.61;73.90;95187.56;5103037;28;20023;-77
2024/01/21 07:50:31;;;;;;;40.42;11.25;;;;;;;-3.53;73.24;95187.41;5103021;28;20020;-77
2024/01/21 07:52:56;;;;;;;19.48;5.82;;;;;;;-3.45;73.69;95192.47;5103092;28;20329;-77
2024/01/21 07:55:22;;;;;;;25.13;7.82;;;;;;;-3.41;73.49;95199.94;5103535;28;20041;-77
2024/01/21 07:57:47;;;;;;;20.80;5.82;;;;;;;-3.45;73.23;95195.09;5103064;28;20213;-78
2024/01/21 08:00:15;;;;;;;10.48;4.90;;;;;;;-3.40;73.14;95188.50;5103268;28;20091;-77
2024/01/21 08:02:41;;;;;;;18.73;5.45;;;;;;;-3.38;73.10;95197.72;5102913;28;20035;-77
2024/01/21 08:05:06;;;;;;;11.95;5.38;;;;;;;-3.30;72.69;95188.94;5103071;28;20210;-78
2024/01/21 08:07:32;;;;;;;10.98;4.82;;;;;;;-3.21;72.54;95197.41;5103104;28;20032;-78
2024/01/21 08:09:58;;;;;;;14.27;4.70;;;;;;;-3.22;72.74;95201.81;5102492;28;20096;-78
2024/01/21 08:12:23;;;;;;;15.88;4.35;;;;;;;-3.18;72.62;95208.25;5101635;28;20096;-75
2024/01/21 08:14:49;;;;;;;8.70;4.05;;;;;;;-3.17;72.91;95209.88;5102995;28;20315;-74
2024/01/21 08:17:14;;;;;;;8.10;3.78;;;;;;;-3.09;72.87;95207.09;5102851;28;20028;-75
2024/01/21 08:19:40;;;;;;;9.88;3.25;;;;;;;-3.00;72.27;95209.53;5102856;28;20039;-73
2024/01/21 08:22:07;;;;;;;8.07;3.50;;;;;;;-2.90;71.59;95205.53;5102816;28;20055;-76
2024/01/21 08:24:32;;;;;;;9.05;3.80;;;;;;;-2.83;71.35;95211.59;5103260;28;20031;-74
2024/01/21 08:26:59;;;;;;;9.45;3.80;;;;;;;-2.70;71.57;95215.25;5103024;28;20327;-74
2024/01/21 08:29:24;;;;;;;7.65;3.67;;;;;;;-2.59;70.91;95212.03;5102814;28;20036;-73
2024/01/21 08:31:50;;;;;;;6.15;3.10;;;;;;;-2.58;70.43;95218.09;5101647;28;20099;-73
2024/01/21 08:34:16;;;;;;;5.75;3.20;;;;;;;-2.53;70.66;95223.50;5102672;28;20044;-74
2024/01/21 08:36:41;;;;;;;7.93;3.30;;;;;;;-2.49;68.21;95228.13;5102912;28;20326;-74
2024/01/21 08:39:09;;;;;;;5.80;2.90;;;;;;;-2.50;68.35;95233.56;5102964;28;20032;-75
2024/01/21 08:41:35;;;;;;;5.35;2.80;;;;;;;-2.63;69.12;95227.31;5102656;28;20070;-76
2024/01/21 08:44:06;;;;;;;6.32;3.17;;;;;;;-2.56;69.19;95226.53;5102561;28;20099;-75
2024/01/21 08:46:32;;;;;;;5.30;2.83;;;;;;;-2.55;68.65;95228.94;5101306;28;20019;-75
2024/01/21 08:48:57;;;;;;;5.95;3.00;;;;;;;-2.52;69.46;95230.34;5101428;28;20067;-75
2024/01/21 08:51:23;;;;;;;11.60;4.20;;;;;;;-2.43;69.26;95234.38;5100035;28;20468;-75
2024/01/21 08:53:55;;;;;;;8.73;3.90;;;;;;;-2.34;68.97;95235.00;5102705;28;20138;-76
2024/01/21 08:56:23;;;;;;;7.82;4.03;;;;;;;-2.29;68.90;95238.63;5102104;28;20087;-76
2024/01/21 08:58:49;;;;;;;9.20;3.90;;;;;;;-2.27;69.32;95231.38;5102456;28;20023;-75
2024/01/21 09:01:16;;;;;;;11.18;4.35;;;;;;;-2.22;69.05;95229.00;5099908;28;20142;-75
2024/01/21 09:03:41;;;;;;;10.55;3.08;;;;;;;-2.18;68.31;95228.59;5101873;28;20026;-75
2024/01/21 09:06:06;;;;;;;6.50;3.28;;;;;;;-2.13;67.39;95234.03;5102247;28;20214;-75
2024/01/21 09:08:32;;;;;;;11.27;3.95;;;;;;;-2.13;68.08;95236.63;5101895;28;20020;-75
2024/01/21 09:10:57;;;;;;;8.43;3.60;;;;;;;-2.07;67.24;95238.47;5101149;28;20310;-75
2024/01/21 09:13:23;;;;;;;13.63;3.75;;;;;;;-2.05;66.39;95226.78;5101969;28;20095;-75
2024/01/21 09:15:48;;;;;;;8.20;4.28;;;;;;;-2.12;67.12;95219.94;5102033;28;20091;-75
2024/01/21 09:18:13;;;;;;;10.48;3.83;;;;;;;-2.25;67.27;95233.81;5100908;28;20055;-75
2024/01/21 09:20:39;;;;;;;8.45;3.53;;;;;;;-2.22;67.32;95223.78;5102316;28;20094;-76
2024/01/21 09:23:04;;;;;;;8.70;3.53;;;;;;;-2.17;67.70;95225.78;5104947;28;20062;-75
2024/01/21 09:25:30;;;;;;;8.45;3.55;;;;;;;-2.08;66.99;95219.34;5106057;28;20202;-76
2024/01/21 09:27:55;;;;;;;9.20;3.58;;;;;;;-1.98;67.06;95224.16;5105916;28;20360;-76
2024/01/21 09:30:20;;;;;;;6.65;3.58;;;;;;;-1.88;66.77;95219.34;5106191;28;20047;-76
2024/01/21 09:32:46;;;;;;;9.38;3.42;;;;;;;-1.91;65.39;95226.81;5105941;28;20016;-76
2024/01/21 09:35:11;;;;;;;8.05;3.25;;;;;;;-1.83;65.28;95222.16;5105884;28;20028;-76
2024/01/21 09:37:37;;;;;;;8.23;3.55;;;;;;;-1.75;64.84;95218.56;5105650;28;20016;-75
2024/01/21 09:40:06;;;;;;;5.40;3.03;;;;;;;-1.82;65.40;95210.69;5105874;28;20318;-75
2024/01/21 09:42:31;;;;;;;8.48;3.55;;;;;;;-1.76;65.64;95216.94;5105523;28;20043;-76
2024/01/21 09:44:57;;;;;;;10.88;3.72;;;;;;;-1.60;66.47;95220.94;5105711;28;20066;-76
2024/01/21 09:47:23;;;;;;;7.40;2.88;;;;;;;-1.50;63.89;95221.31;5105738;28;20272;-75
2024/01/21 09:49:50;;;;;;;9.07;3.90;;;;;;;-1.58;65.47;95218.13;5105569;28;20024;-75
2024/01/21 09:52:18;;;;;;;7.57;3.75;;;;;;;-1.47;64.40;95202.59;5105496;28;20215;-75
2024/01/21 09:54:45;;;;;;;8.57;3.17;;;;;;;-1.33;63.03;95199.97;5105470;28;20273;-76
2024/01/21 09:57:12;;;;;;;5.90;3.13;;;;;;;-1.29;63.59;95211.63;5105287;28;20269;-76
2024/01/21 09:59:39;;;;;;;6.13;3.30;;;;;;;-1.23;63.47;95198.50;5105510;28;20100;-76
2024/01/21 10:02:06;;;;;;;11.60;3.10;;;;;;;-1.22;63.34;95202.75;5105053;28;20105;-75
2024/01/21 10:04:32;;;;;;;6.55;3.22;;;;;;;-1.14;63.55;95209.56;5105165;28;20286;-75
2024/01/21 10:06:58;;;;;;;7.50;3.78;;;;;;;-1.06;62.78;95198.06;5104878;28;20314;-76
2024/01/21 10:09:23;;;;;;;10.77;4.40;;;;;;;-1.02;62.57;95197.44;5105024;28;20031;-76
2024/01/21 10:11:57;;;;;;;9.77;4.07;;;;;;;-0.98;62.27;95202.25;5104980;28;20032;-75
2024/01/21 10:14:24;;;;;;;12.98;3.95;;;;;;;-0.93;62.90;95200.63;5104876;28;20016;-75
2024/01/21 10:16:50;;;;;;;6.43;3.40;;;;;;;-0.85;62.09;95191.75;5105022;28;20122;-75
2024/01/21 10:19:24;;;;;;;7.45;3.33;;;;;;;-0.80;61.04;95194.53;5104646;28;20024;-76
2024/01/21 10:21:50;;;;;;;8.32;3.50;;;;;;;-0.71;60.84;95187.22;5104838;28;20027;-75
2024/01/21 10:24:22;;;;;;;10.20;4.20;;;;;;;-0.65;60.95;95192.44;5104712;28;20214;-75
2024/01/21 10:26:47;;;;;;;12.30;3.17;;;;;;;-0.65;61.07;95187.19;5104911;28;20094;-75
2024/01/21 10:29:13;;;;;;;13.20;3.78;;;;;;;-0.56;60.04;95190.38;5104807;28;20253;-75
2024/01/21 10:31:38;;;;;;;7.30;3.85;;;;;;;-0.50;60.59;95184.28;5104493;28;20023;-75
2024/01/21 10:34:03;;;;;;;6.93;3.17;;;;;;;-0.41;58.51;95177.78;5104138;28;20031;-75
2024/01/21 10:36:33;;;;;;;8.55;3.85;;;;;;;-0.29;58.80;95177.09;5104380;28;20051;-76
2024/01/21 10:39:02;;;;;;;8.80;3.58;;;;;;;-0.23;58.40;95184.91;5104378;28;20028;-75
2024/01/21 10:41:32;;;;;;;10.70;3.40;;;;;;;-0.17;56.59;95171.97;5104476;28;20040;-75
2024/01/21 10:43:59;;;;;;;13.05;4.40;;;;;;;-0.13;57.40;95176.56;5104143;28;20028;-75
2024/01/21 10:46:25;;;;;;;7.95;4.32;;;;;;;-0.11;57.88;95171.91;5104311;28;20031;-75
2024/01/21 10:48:57;;;;;;;9.15;4.22;;;;;;;-0.11;56.65;95168.50;5104520;28;20054;-75
2024/01/21 10:51:23;;;;;;;7.80;4.18;;;;;;;-0.22;56.92;95160.31;5104385;28;20095;-75
2024/01/21 10:53:52;;;;;;;8.30;4.13;;;;;;;-0.26;57.62;95167.00;5104093;28;20036;-75
2024/01/21 10:56:19;;;;;;;10.30;5.00;;;;;;;-0.22;57.18;95170.00;5104143;28;20051;-75
2024/01/21 10:58:45;;;;;;;12.00;4.68;;;;;;;-0.19;58.18;95166.94;5104273;28;20285;-75
2024/01/21 11:01:11;;;;;;;10.23;4.63;;;;;;;-0.13;58.48;95173.16;5103916;28;20059;-75
2024/01/21 11:03:36;;;;;;;11.45;4.32;;;;;;;-0.17;58.47;95171.97;5103800;28;20028;-75
2024/01/21 11:06:07;;;;;;;10.57;5.13;;;;;;;-0.11;59.05;95156.19;5103920;28;20024;-74
2024/01/21 11:08:34;;;;;;;10.18;4.85;;;;;;;-0.11;59.12;95163.25;5103910;28;20035;-75
2024/01/21 11:11:06;;;;;;;9.18;4.75;;;;;;;-0.13;58.62;95154.81;5103792;28;20385;-75
2024/01/21 11:13:47;;;;;;;10.98;5.18;;;;;;;-0.04;59.36;95158.75;5103734;28;20028;-75
2024/01/21 11:16:34;;;;;;;10.05;4.72;;;;;;;0.03;58.92;95156.09;5103736;28;20028;-75
2024/01/21 11:19:08;;;;;;;16.77;5.25;;;;;;;0.16;58.57;95151.53;5103666;28;20028;-76
2024/01/21 11:21:40;;;;;;;13.13;5.75;;;;;;;0.27;59.25;95151.84;5103648;28;20103;-75
2024/01/21 11:24:13;;;;;;;13.43;5.80;;;;;;;0.35;58.69;95159.44;5103398;28;20028;-75
2024/01/21 11:26:41;;;;;;;12.07;5.30;;;;;;;0.35;57.87;95156.81;5103625;28;20203;-75